sensor_id;sensor_type;location;lat;lon;timestamp;P1;durP1;ratioP1;P2;durP2;ratioP2
11771;SDS011;12556;55.748;13.194;2023-11-21T00:02:07;6.07;;;5.47;;
11771;SDS011;12556;55.748;13.194;2023-11-21T00:04:33;7.37;;;5.23;;
11771;SDS011;12556;55.748;13.194;2023-11-21T00:07:02;6.40;;;5.20;;
11771;SDS011;12556;55.748;13.194;2023-11-21T00:09:29;7.70;;;5.47;;
11771;SDS011;12556;55.748;13.194;2023-11-21T00:11:55;7.20;;;5.20;;
11771;SDS011;12556;55.748;13.194;2023-11-21T00:14:24;6.27;;;5.10;;
11771;SDS011;12556;55.748;13.194;2023-11-21T00:16:51;5.97;;;5.37;;
11771;SDS011;12556;55.748;13.194;2023-11-21T00:19:17;8.67;;;5.27;;
11771;SDS011;12556;55.748;13.194;2023-11-21T00:21:44;6.70;;;5.37;;
11771;SDS011;12556;55.748;13.194;2023-11-21T00:24:12;7.03;;;5.33;;
11771;SDS011;12556;55.748;13.194;2023-11-21T00:26:39;6.23;;;5.20;;
11771;SDS011;12556;55.748;13.194;2023-11-21T00:29:06;6.10;;;5.30;;
11771;SDS011;12556;55.748;13.194;2023-11-21T00:31:33;7.23;;;5.70;;
11771;SDS011;12556;55.748;13.194;2023-11-21T00:34:01;6.47;;;5.77;;
11771;SDS011;12556;55.748;13.194;2023-11-21T00:36:28;6.17;;;5.37;;
11771;SDS011;12556;55.748;13.194;2023-11-21T00:38:55;6.03;;;5.33;;
11771;SDS011;12556;55.748;13.194;2023-11-21T00:41:23;9.90;;;6.03;;
11771;SDS011;12556;55.748;13.194;2023-11-21T00:43:52;8.97;;;5.53;;
11771;SDS011;12556;55.748;13.194;2023-11-21T00:46:20;6.87;;;5.57;;
11771;SDS011;12556;55.748;13.194;2023-11-21T00:48:47;8.53;;;6.30;;
11771;SDS011;12556;55.748;13.194;2023-11-21T00:51:13;7.20;;;5.33;;
11771;SDS011;12556;55.748;13.194;2023-11-21T00:53:40;6.20;;;5.50;;
11771;SDS011;12556;55.748;13.194;2023-11-21T00:56:07;7.37;;;6.00;;
11771;SDS011;12556;55.748;13.194;2023-11-21T00:58:35;6.63;;;5.93;;
11771;SDS011;12556;55.748;13.194;2023-11-21T01:01:02;10.43;;;6.53;;
11771;SDS011;12556;55.748;13.194;2023-11-21T01:03:29;6.20;;;5.60;;
11771;SDS011;12556;55.748;13.194;2023-11-21T01:05:56;6.67;;;5.80;;
11771;SDS011;12556;55.748;13.194;2023-11-21T01:08:24;6.67;;;5.70;;
11771;SDS011;12556;55.748;13.194;2023-11-21T01:10:50;6.90;;;6.20;;
11771;SDS011;12556;55.748;13.194;2023-11-21T01:13:17;7.30;;;6.40;;
11771;SDS011;12556;55.748;13.194;2023-11-21T01:15:45;7.37;;;6.17;;
11771;SDS011;12556;55.748;13.194;2023-11-21T01:18:12;7.67;;;5.67;;
11771;SDS011;12556;55.748;13.194;2023-11-21T01:20:39;8.27;;;6.07;;
11771;SDS011;12556;55.748;13.194;2023-11-21T01:23:06;7.80;;;6.23;;
11771;SDS011;12556;55.748;13.194;2023-11-21T01:25:33;6.40;;;5.80;;
11771;SDS011;12556;55.748;13.194;2023-11-21T01:27:59;7.73;;;5.50;;
11771;SDS011;12556;55.748;13.194;2023-11-21T01:30:26;9.30;;;6.37;;
11771;SDS011;12556;55.748;13.194;2023-11-21T01:32:54;9.00;;;5.67;;
11771;SDS011;12556;55.748;13.194;2023-11-21T01:35:21;6.37;;;5.57;;
11771;SDS011;12556;55.748;13.194;2023-11-21T01:37:48;6.33;;;5.63;;
11771;SDS011;12556;55.748;13.194;2023-11-21T01:40:15;6.83;;;5.57;;
11771;SDS011;12556;55.748;13.194;2023-11-21T01:42:42;5.87;;;5.27;;
11771;SDS011;12556;55.748;13.194;2023-11-21T01:45:10;5.83;;;5.27;;
11771;SDS011;12556;55.748;13.194;2023-11-21T01:47:37;7.50;;;5.93;;
11771;SDS011;12556;55.748;13.194;2023-11-21T01:50:07;6.17;;;5.50;;
11771;SDS011;12556;55.748;13.194;2023-11-21T01:52:37;8.60;;;6.10;;
11771;SDS011;12556;55.748;13.194;2023-11-21T01:55:06;7.97;;;6.47;;
11771;SDS011;12556;55.748;13.194;2023-11-21T01:57:34;6.50;;;5.80;;
11771;SDS011;12556;55.748;13.194;2023-11-21T02:00:03;7.57;;;6.33;;
11771;SDS011;12556;55.748;13.194;2023-11-21T02:02:40;7.17;;;6.17;;
11771;SDS011;12556;55.748;13.194;2023-11-21T02:05:10;6.40;;;5.73;;
11771;SDS011;12556;55.748;13.194;2023-11-21T02:07:37;8.37;;;5.70;;
11771;SDS011;12556;55.748;13.194;2023-11-21T02:10:05;7.90;;;5.70;;
11771;SDS011;12556;55.748;13.194;2023-11-21T02:12:32;6.93;;;5.87;;
11771;SDS011;12556;55.748;13.194;2023-11-21T02:15:00;6.20;;;5.00;;
11771;SDS011;12556;55.748;13.194;2023-11-21T02:17:27;6.13;;;5.53;;
11771;SDS011;12556;55.748;13.194;2023-11-21T02:19:54;6.47;;;5.47;;
11771;SDS011;12556;55.748;13.194;2023-11-21T02:22:23;7.23;;;6.37;;
11771;SDS011;12556;55.748;13.194;2023-11-21T02:24:52;6.10;;;5.37;;
11771;SDS011;12556;55.748;13.194;2023-11-21T02:27:19;5.93;;;5.07;;
11771;SDS011;12556;55.748;13.194;2023-11-21T02:29:48;5.90;;;5.30;;
11771;SDS011;12556;55.748;13.194;2023-11-21T02:32:14;6.23;;;5.63;;
11771;SDS011;12556;55.748;13.194;2023-11-21T02:34:44;5.63;;;5.00;;
11771;SDS011;12556;55.748;13.194;2023-11-21T02:37:11;6.73;;;5.63;;
11771;SDS011;12556;55.748;13.194;2023-11-21T02:39:38;6.17;;;5.33;;
11771;SDS011;12556;55.748;13.194;2023-11-21T02:42:06;6.80;;;5.63;;
11771;SDS011;12556;55.748;13.194;2023-11-21T02:44:33;5.67;;;5.10;;
11771;SDS011;12556;55.748;13.194;2023-11-21T02:47:00;6.03;;;5.20;;
11771;SDS011;12556;55.748;13.194;2023-11-21T02:49:27;8.43;;;6.60;;
11771;SDS011;12556;55.748;13.194;2023-11-21T02:51:55;7.97;;;5.83;;
11771;SDS011;12556;55.748;13.194;2023-11-21T02:54:22;6.50;;;5.63;;
11771;SDS011;12556;55.748;13.194;2023-11-21T02:56:49;6.57;;;5.83;;
11771;SDS011;12556;55.748;13.194;2023-11-21T02:59:18;6.77;;;5.50;;
11771;SDS011;12556;55.748;13.194;2023-11-21T03:01:44;6.20;;;5.30;;
11771;SDS011;12556;55.748;13.194;2023-11-21T03:04:11;7.13;;;6.10;;
11771;SDS011;12556;55.748;13.194;2023-11-21T03:06:42;6.83;;;5.57;;
11771;SDS011;12556;55.748;13.194;2023-11-21T03:09:09;6.17;;;5.67;;
11771;SDS011;12556;55.748;13.194;2023-11-21T03:11:37;8.30;;;6.17;;
11771;SDS011;12556;55.748;13.194;2023-11-21T03:14:03;7.13;;;5.60;;
11771;SDS011;12556;55.748;13.194;2023-11-21T03:16:32;7.23;;;5.10;;
11771;SDS011;12556;55.748;13.194;2023-11-21T03:18:59;5.60;;;5.10;;
11771;SDS011;12556;55.748;13.194;2023-11-21T03:21:26;7.13;;;5.40;;
11771;SDS011;12556;55.748;13.194;2023-11-21T03:23:54;6.43;;;5.30;;
11771;SDS011;12556;55.748;13.194;2023-11-21T03:26:21;7.13;;;5.23;;
11771;SDS011;12556;55.748;13.194;2023-11-21T03:28:48;7.23;;;5.67;;
11771;SDS011;12556;55.748;13.194;2023-11-21T03:31:15;5.77;;;4.83;;
11771;SDS011;12556;55.748;13.194;2023-11-21T03:33:44;7.13;;;6.07;;
11771;SDS011;12556;55.748;13.194;2023-11-21T03:36:12;5.67;;;4.80;;
11771;SDS011;12556;55.748;13.194;2023-11-21T03:38:41;5.23;;;4.73;;
11771;SDS011;12556;55.748;13.194;2023-11-21T03:41:08;7.00;;;4.50;;
11771;SDS011;12556;55.748;13.194;2023-11-21T03:43:35;7.33;;;4.87;;
11771;SDS011;12556;55.748;13.194;2023-11-21T03:46:02;6.70;;;5.07;;
11771;SDS011;12556;55.748;13.194;2023-11-21T03:48:29;5.77;;;4.67;;
11771;SDS011;12556;55.748;13.194;2023-11-21T03:50:58;5.17;;;4.53;;
11771;SDS011;12556;55.748;13.194;2023-11-21T03:53:25;6.03;;;5.00;;
11771;SDS011;12556;55.748;13.194;2023-11-21T03:55:52;5.43;;;4.63;;
11771;SDS011;12556;55.748;13.194;2023-11-21T03:58:19;10.00;;;5.20;;
11771;SDS011;12556;55.748;13.194;2023-11-21T04:00:46;5.10;;;4.60;;
11771;SDS011;12556;55.748;13.194;2023-11-21T04:03:14;6.73;;;4.77;;
11771;SDS011;12556;55.748;13.194;2023-11-21T04:05:40;5.13;;;4.53;;
11771;SDS011;12556;55.748;13.194;2023-11-21T04:08:09;6.30;;;4.63;;
11771;SDS011;12556;55.748;13.194;2023-11-21T04:10:35;6.83;;;5.37;;
11771;SDS011;12556;55.748;13.194;2023-11-21T04:13:04;5.33;;;4.83;;
11771;SDS011;12556;55.748;13.194;2023-11-21T04:15:31;5.70;;;4.63;;
11771;SDS011;12556;55.748;13.194;2023-11-21T04:17:58;6.17;;;4.60;;
11771;SDS011;12556;55.748;13.194;2023-11-21T04:20:25;6.10;;;4.57;;
11771;SDS011;12556;55.748;13.194;2023-11-21T04:22:52;5.53;;;4.73;;
11771;SDS011;12556;55.748;13.194;2023-11-21T04:25:20;5.47;;;4.00;;
11771;SDS011;12556;55.748;13.194;2023-11-21T04:27:48;7.37;;;4.50;;
11771;SDS011;12556;55.748;13.194;2023-11-21T04:30:15;5.87;;;4.13;;
11771;SDS011;12556;55.748;13.194;2023-11-21T04:32:42;8.70;;;5.37;;
11771;SDS011;12556;55.748;13.194;2023-11-21T04:35:09;8.70;;;5.27;;
11771;SDS011;12556;55.748;13.194;2023-11-21T04:37:36;7.37;;;4.80;;
11771;SDS011;12556;55.748;13.194;2023-11-21T04:40:03;5.83;;;5.07;;
11771;SDS011;12556;55.748;13.194;2023-11-21T04:42:33;5.73;;;5.10;;
11771;SDS011;12556;55.748;13.194;2023-11-21T04:45:01;5.77;;;5.10;;
11771;SDS011;12556;55.748;13.194;2023-11-21T04:47:30;5.93;;;5.30;;
11771;SDS011;12556;55.748;13.194;2023-11-21T04:49:57;7.63;;;5.13;;
11771;SDS011;12556;55.748;13.194;2023-11-21T04:52:25;5.37;;;4.37;;
11771;SDS011;12556;55.748;13.194;2023-11-21T04:54:51;5.72;;;5.18;;
11771;SDS011;12556;55.748;13.194;2023-11-21T04:57:19;5.07;;;4.57;;
11771;SDS011;12556;55.748;13.194;2023-11-21T04:59:48;5.60;;;4.77;;
11771;SDS011;12556;55.748;13.194;2023-11-21T05:02:15;5.13;;;4.00;;
11771;SDS011;12556;55.748;13.194;2023-11-21T05:04:44;7.13;;;4.80;;
11771;SDS011;12556;55.748;13.194;2023-11-21T05:07:11;5.60;;;4.47;;
11771;SDS011;12556;55.748;13.194;2023-11-21T05:09:40;7.33;;;4.77;;
11771;SDS011;12556;55.748;13.194;2023-11-21T05:12:09;8.70;;;5.03;;
11771;SDS011;12556;55.748;13.194;2023-11-21T05:14:36;6.80;;;4.97;;
11771;SDS011;12556;55.748;13.194;2023-11-21T05:17:04;5.73;;;4.63;;
11771;SDS011;12556;55.748;13.194;2023-11-21T05:19:33;5.47;;;4.17;;
11771;SDS011;12556;55.748;13.194;2023-11-21T05:22:00;5.50;;;4.70;;
11771;SDS011;12556;55.748;13.194;2023-11-21T05:24:27;5.50;;;4.50;;
11771;SDS011;12556;55.748;13.194;2023-11-21T05:26:54;7.43;;;4.57;;
11771;SDS011;12556;55.748;13.194;2023-11-21T05:29:22;5.60;;;4.13;;
11771;SDS011;12556;55.748;13.194;2023-11-21T05:31:48;6.07;;;4.87;;
11771;SDS011;12556;55.748;13.194;2023-11-21T05:34:17;6.10;;;4.83;;
11771;SDS011;12556;55.748;13.194;2023-11-21T05:36:45;6.40;;;5.63;;
11771;SDS011;12556;55.748;13.194;2023-11-21T05:39:13;6.00;;;4.83;;
11771;SDS011;12556;55.748;13.194;2023-11-21T05:41:42;5.73;;;4.37;;
11771;SDS011;12556;55.748;13.194;2023-11-21T05:44:09;5.43;;;4.80;;
11771;SDS011;12556;55.748;13.194;2023-11-21T05:46:36;6.23;;;4.47;;
11771;SDS011;12556;55.748;13.194;2023-11-21T05:49:02;6.00;;;5.10;;
11771;SDS011;12556;55.748;13.194;2023-11-21T05:51:30;6.60;;;5.17;;
11771;SDS011;12556;55.748;13.194;2023-11-21T05:53:57;5.93;;;4.53;;
11771;SDS011;12556;55.748;13.194;2023-11-21T05:56:24;8.33;;;4.67;;
11771;SDS011;12556;55.748;13.194;2023-11-21T05:58:51;5.03;;;4.53;;
11771;SDS011;12556;55.748;13.194;2023-11-21T06:01:18;6.03;;;5.30;;
11771;SDS011;12556;55.748;13.194;2023-11-21T06:03:45;6.70;;;4.20;;
11771;SDS011;12556;55.748;13.194;2023-11-21T06:06:11;7.10;;;4.57;;
11771;SDS011;12556;55.748;13.194;2023-11-21T06:08:40;6.93;;;4.70;;
11771;SDS011;12556;55.748;13.194;2023-11-21T06:11:07;8.33;;;5.13;;
11771;SDS011;12556;55.748;13.194;2023-11-21T06:13:36;7.27;;;4.77;;
11771;SDS011;12556;55.748;13.194;2023-11-21T06:16:03;7.37;;;4.67;;
11771;SDS011;12556;55.748;13.194;2023-11-21T06:18:31;5.00;;;4.37;;
11771;SDS011;12556;55.748;13.194;2023-11-21T06:20:57;5.03;;;4.30;;
11771;SDS011;12556;55.748;13.194;2023-11-21T06:23:25;6.10;;;4.07;;
11771;SDS011;12556;55.748;13.194;2023-11-21T06:25:54;6.93;;;4.87;;
11771;SDS011;12556;55.748;13.194;2023-11-21T06:28:20;4.87;;;3.57;;
11771;SDS011;12556;55.748;13.194;2023-11-21T06:30:47;4.40;;;4.00;;
11771;SDS011;12556;55.748;13.194;2023-11-21T06:33:15;5.90;;;4.67;;
11771;SDS011;12556;55.748;13.194;2023-11-21T06:35:42;5.43;;;4.33;;
11771;SDS011;12556;55.748;13.194;2023-11-21T06:38:09;5.13;;;4.10;;
11771;SDS011;12556;55.748;13.194;2023-11-21T06:40:36;5.37;;;4.03;;
11771;SDS011;12556;55.748;13.194;2023-11-21T06:43:04;4.70;;;3.97;;
11771;SDS011;12556;55.748;13.194;2023-11-21T06:45:34;4.27;;;3.87;;
11771;SDS011;12556;55.748;13.194;2023-11-21T06:48:01;8.00;;;4.30;;
11771;SDS011;12556;55.748;13.194;2023-11-21T06:50:28;4.67;;;3.90;;
11771;SDS011;12556;55.748;13.194;2023-11-21T06:52:55;4.37;;;3.97;;
11771;SDS011;12556;55.748;13.194;2023-11-21T06:55:21;4.23;;;3.83;;
11771;SDS011;12556;55.748;13.194;2023-11-21T06:57:48;6.10;;;4.33;;
11771;SDS011;12556;55.748;13.194;2023-11-21T07:00:18;5.27;;;3.90;;
11771;SDS011;12556;55.748;13.194;2023-11-21T07:02:45;5.80;;;4.23;;
11771;SDS011;12556;55.748;13.194;2023-11-21T07:05:12;5.77;;;4.30;;
11771;SDS011;12556;55.748;13.194;2023-11-21T07:07:39;4.80;;;3.57;;
11771;SDS011;12556;55.748;13.194;2023-11-21T07:10:06;5.53;;;4.23;;
11771;SDS011;12556;55.748;13.194;2023-11-21T07:12:34;5.07;;;4.07;;
11771;SDS011;12556;55.748;13.194;2023-11-21T07:15:01;5.20;;;3.97;;
11771;SDS011;12556;55.748;13.194;2023-11-21T07:17:31;6.57;;;4.20;;
11771;SDS011;12556;55.748;13.194;2023-11-21T07:20:00;6.83;;;3.97;;
11771;SDS011;12556;55.748;13.194;2023-11-21T07:22:27;6.10;;;3.87;;
11771;SDS011;12556;55.748;13.194;2023-11-21T07:24:55;6.43;;;4.07;;
11771;SDS011;12556;55.748;13.194;2023-11-21T07:27:22;7.67;;;4.03;;
11771;SDS011;12556;55.748;13.194;2023-11-21T07:29:49;5.07;;;4.07;;
11771;SDS011;12556;55.748;13.194;2023-11-21T07:32:16;4.00;;;3.60;;
11771;SDS011;12556;55.748;13.194;2023-11-21T07:34:44;4.77;;;3.07;;
11771;SDS011;12556;55.748;13.194;2023-11-21T07:37:11;4.70;;;4.00;;
11771;SDS011;12556;55.748;13.194;2023-11-21T07:39:38;6.53;;;3.90;;
11771;SDS011;12556;55.748;13.194;2023-11-21T07:42:07;6.90;;;3.30;;
11771;SDS011;12556;55.748;13.194;2023-11-21T07:44:34;4.43;;;3.87;;
11771;SDS011;12556;55.748;13.194;2023-11-21T07:47:00;5.13;;;3.83;;
11771;SDS011;12556;55.748;13.194;2023-11-21T07:49:27;4.20;;;3.80;;
11771;SDS011;12556;55.748;13.194;2023-11-21T07:51:56;4.37;;;3.57;;
11771;SDS011;12556;55.748;13.194;2023-11-21T07:54:22;4.60;;;3.70;;
11771;SDS011;12556;55.748;13.194;2023-11-21T07:56:49;4.90;;;4.20;;
11771;SDS011;12556;55.748;13.194;2023-11-21T07:59:16;4.47;;;3.87;;
11771;SDS011;12556;55.748;13.194;2023-11-21T08:01:43;4.40;;;3.77;;
11771;SDS011;12556;55.748;13.194;2023-11-21T08:04:11;4.23;;;3.60;;
11771;SDS011;12556;55.748;13.194;2023-11-21T08:06:38;3.60;;;3.30;;
11771;SDS011;12556;55.748;13.194;2023-11-21T08:09:07;5.97;;;4.03;;
11771;SDS011;12556;55.748;13.194;2023-11-21T08:11:34;5.47;;;3.90;;
11771;SDS011;12556;55.748;13.194;2023-11-21T08:14:01;4.87;;;3.40;;
11771;SDS011;12556;55.748;13.194;2023-11-21T08:16:27;5.67;;;4.13;;
11771;SDS011;12556;55.748;13.194;2023-11-21T08:18:54;4.43;;;3.43;;
11771;SDS011;12556;55.748;13.194;2023-11-21T08:21:21;3.57;;;3.27;;
11771;SDS011;12556;55.748;13.194;2023-11-21T08:23:49;5.03;;;3.70;;
11771;SDS011;12556;55.748;13.194;2023-11-21T08:26:20;4.20;;;3.20;;
11771;SDS011;12556;55.748;13.194;2023-11-21T08:28:47;4.30;;;3.23;;
11771;SDS011;12556;55.748;13.194;2023-11-21T08:31:14;3.70;;;3.10;;
11771;SDS011;12556;55.748;13.194;2023-11-21T08:33:41;4.33;;;3.20;;
11771;SDS011;12556;55.748;13.194;2023-11-21T08:36:08;4.63;;;3.80;;
11771;SDS011;12556;55.748;13.194;2023-11-21T08:38:37;3.40;;;2.97;;
11771;SDS011;12556;55.748;13.194;2023-11-21T08:41:05;3.97;;;3.60;;
11771;SDS011;12556;55.748;13.194;2023-11-21T08:43:35;4.23;;;3.73;;
11771;SDS011;12556;55.748;13.194;2023-11-21T08:46:04;3.73;;;3.43;;
11771;SDS011;12556;55.748;13.194;2023-11-21T08:48:33;3.43;;;3.13;;
11771;SDS011;12556;55.748;13.194;2023-11-21T08:51:01;4.87;;;3.50;;
11771;SDS011;12556;55.748;13.194;2023-11-21T08:53:28;5.23;;;3.43;;
11771;SDS011;12556;55.748;13.194;2023-11-21T08:55:56;3.23;;;2.87;;
11771;SDS011;12556;55.748;13.194;2023-11-21T08:58:22;5.07;;;3.47;;
11771;SDS011;12556;55.748;13.194;2023-11-21T09:00:50;4.67;;;3.10;;
11771;SDS011;12556;55.748;13.194;2023-11-21T09:03:17;3.77;;;3.03;;
11771;SDS011;12556;55.748;13.194;2023-11-21T09:05:44;4.17;;;2.90;;
11771;SDS011;12556;55.748;13.194;2023-11-21T09:08:11;5.40;;;2.83;;
11771;SDS011;12556;55.748;13.194;2023-11-21T09:10:38;2.80;;;2.53;;
11771;SDS011;12556;55.748;13.194;2023-11-21T09:13:05;3.07;;;2.77;;
11771;SDS011;12556;55.748;13.194;2023-11-21T09:15:35;3.70;;;3.30;;
11771;SDS011;12556;55.748;13.194;2023-11-21T09:18:04;4.10;;;2.60;;
11771;SDS011;12556;55.748;13.194;2023-11-21T09:20:31;2.93;;;2.60;;
11771;SDS011;12556;55.748;13.194;2023-11-21T09:22:58;3.50;;;2.70;;
11771;SDS011;12556;55.748;13.194;2023-11-21T09:25:25;4.23;;;2.40;;
11771;SDS011;12556;55.748;13.194;2023-11-21T09:27:53;5.07;;;2.93;;
11771;SDS011;12556;55.748;13.194;2023-11-21T09:30:21;3.20;;;2.70;;
11771;SDS011;12556;55.748;13.194;2023-11-21T09:32:49;5.73;;;2.93;;
11771;SDS011;12556;55.748;13.194;2023-11-21T09:35:17;4.43;;;2.87;;
11771;SDS011;12556;55.748;13.194;2023-11-21T09:37:44;3.33;;;2.57;;
11771;SDS011;12556;55.748;13.194;2023-11-21T09:40:12;4.57;;;3.03;;
11771;SDS011;12556;55.748;13.194;2023-11-21T09:42:43;4.30;;;2.83;;
11771;SDS011;12556;55.748;13.194;2023-11-21T09:45:17;3.53;;;2.70;;
11771;SDS011;12556;55.748;13.194;2023-11-21T09:47:48;3.67;;;2.93;;
11771;SDS011;12556;55.748;13.194;2023-11-21T09:50:18;2.93;;;2.63;;
11771;SDS011;12556;55.748;13.194;2023-11-21T09:52:49;2.93;;;2.50;;
11771;SDS011;12556;55.748;13.194;2023-11-21T09:55:24;3.97;;;2.60;;
11771;SDS011;12556;55.748;13.194;2023-11-21T09:57:55;3.07;;;2.70;;
11771;SDS011;12556;55.748;13.194;2023-11-21T10:00:22;2.93;;;2.30;;
11771;SDS011;12556;55.748;13.194;2023-11-21T10:02:50;3.33;;;2.40;;
11771;SDS011;12556;55.748;13.194;2023-11-21T10:05:19;2.73;;;2.10;;
11771;SDS011;12556;55.748;13.194;2023-11-21T10:07:47;3.40;;;2.30;;
11771;SDS011;12556;55.748;13.194;2023-11-21T10:10:17;3.07;;;2.30;;
11771;SDS011;12556;55.748;13.194;2023-11-21T10:12:48;2.57;;;2.37;;
11771;SDS011;12556;55.748;13.194;2023-11-21T10:15:18;3.53;;;1.93;;
11771;SDS011;12556;55.748;13.194;2023-11-21T10:17:48;2.20;;;1.97;;
11771;SDS011;12556;55.748;13.194;2023-11-21T10:20:15;2.63;;;2.00;;
11771;SDS011;12556;55.748;13.194;2023-11-21T10:22:44;2.63;;;2.00;;
11771;SDS011;12556;55.748;13.194;2023-11-21T10:25:11;3.63;;;1.80;;
11771;SDS011;12556;55.748;13.194;2023-11-21T10:27:39;2.67;;;2.20;;
11771;SDS011;12556;55.748;13.194;2023-11-21T10:30:08;2.70;;;2.07;;
11771;SDS011;12556;55.748;13.194;2023-11-21T10:32:37;3.37;;;2.47;;
11771;SDS011;12556;55.748;13.194;2023-11-21T10:35:05;4.00;;;2.40;;
11771;SDS011;12556;55.748;13.194;2023-11-21T10:37:35;2.33;;;2.10;;
11771;SDS011;12556;55.748;13.194;2023-11-21T10:40:07;3.87;;;2.30;;
11771;SDS011;12556;55.748;13.194;2023-11-21T10:42:37;1.83;;;1.70;;
11771;SDS011;12556;55.748;13.194;2023-11-21T10:45:04;6.73;;;2.80;;
11771;SDS011;12556;55.748;13.194;2023-11-21T10:47:37;2.60;;;1.87;;
11771;SDS011;12556;55.748;13.194;2023-11-21T10:50:05;3.33;;;2.10;;
11771;SDS011;12556;55.748;13.194;2023-11-21T10:52:35;4.03;;;2.47;;
11771;SDS011;12556;55.748;13.194;2023-11-21T10:55:07;6.37;;;2.13;;
11771;SDS011;12556;55.748;13.194;2023-11-21T10:57:42;2.90;;;2.20;;
11771;SDS011;12556;55.748;13.194;2023-11-21T11:00:10;3.43;;;2.50;;
11771;SDS011;12556;55.748;13.194;2023-11-21T11:02:38;5.97;;;2.93;;
11771;SDS011;12556;55.748;13.194;2023-11-21T11:05:06;2.87;;;2.43;;
11771;SDS011;12556;55.748;13.194;2023-11-21T11:07:36;2.97;;;2.67;;
11771;SDS011;12556;55.748;13.194;2023-11-21T11:10:07;2.53;;;2.33;;
11771;SDS011;12556;55.748;13.194;2023-11-21T11:12:39;2.60;;;2.40;;
11771;SDS011;12556;55.748;13.194;2023-11-21T11:15:06;2.87;;;2.37;;
11771;SDS011;12556;55.748;13.194;2023-11-21T11:17:35;5.00;;;2.23;;
11771;SDS011;12556;55.748;13.194;2023-11-21T11:20:05;2.70;;;2.00;;
11771;SDS011;12556;55.748;13.194;2023-11-21T11:22:36;3.83;;;2.60;;
11771;SDS011;12556;55.748;13.194;2023-11-21T11:25:27;3.53;;;2.50;;
11771;SDS011;12556;55.748;13.194;2023-11-21T11:28:02;3.37;;;2.47;;
11771;SDS011;12556;55.748;13.194;2023-11-21T11:30:38;3.37;;;2.47;;
11771;SDS011;12556;55.748;13.194;2023-11-21T11:33:12;5.27;;;2.43;;
11771;SDS011;12556;55.748;13.194;2023-11-21T11:35:51;2.53;;;2.33;;
11771;SDS011;12556;55.748;13.194;2023-11-21T11:38:23;2.57;;;2.37;;
11771;SDS011;12556;55.748;13.194;2023-11-21T11:40:53;2.40;;;2.13;;
11771;SDS011;12556;55.748;13.194;2023-11-21T11:43:26;2.57;;;2.37;;
11771;SDS011;12556;55.748;13.194;2023-11-21T11:45:55;4.53;;;2.50;;
11771;SDS011;12556;55.748;13.194;2023-11-21T11:48:24;2.50;;;2.30;;
11771;SDS011;12556;55.748;13.194;2023-11-21T11:51:03;4.83;;;2.47;;
11771;SDS011;12556;55.748;13.194;2023-11-21T11:53:37;3.37;;;2.50;;
11771;SDS011;12556;55.748;13.194;2023-11-21T11:56:21;3.53;;;2.47;;
11771;SDS011;12556;55.748;13.194;2023-11-21T11:58:52;2.60;;;2.40;;
11771;SDS011;12556;55.748;13.194;2023-11-21T12:01:20;2.43;;;2.23;;
11771;SDS011;12556;55.748;13.194;2023-11-21T12:06:56;3.50;;;2.73;;
11771;SDS011;12556;55.748;13.194;2023-11-21T12:09:27;4.50;;;2.77;;
11771;SDS011;12556;55.748;13.194;2023-11-21T12:11:57;5.27;;;2.50;;
11771;SDS011;12556;55.748;13.194;2023-11-21T12:14:25;2.97;;;2.30;;
11771;SDS011;12556;55.748;13.194;2023-11-21T12:16:52;1.90;;;1.70;;
11771;SDS011;12556;55.748;13.194;2023-11-21T12:19:20;2.50;;;2.23;;
11771;SDS011;12556;55.748;13.194;2023-11-21T12:21:48;2.77;;;1.97;;
11771;SDS011;12556;55.748;13.194;2023-11-21T12:24:15;3.00;;;2.27;;
11771;SDS011;12556;55.748;13.194;2023-11-21T12:26:42;3.30;;;2.63;;
11771;SDS011;12556;55.748;13.194;2023-11-21T12:29:11;3.40;;;2.43;;
11771;SDS011;12556;55.748;13.194;2023-11-21T12:31:38;3.27;;;2.33;;
11771;SDS011;12556;55.748;13.194;2023-11-21T12:34:06;2.97;;;2.40;;
11771;SDS011;12556;55.748;13.194;2023-11-21T12:36:34;3.30;;;2.40;;
11771;SDS011;12556;55.748;13.194;2023-11-21T12:39:01;3.17;;;2.30;;
11771;SDS011;12556;55.748;13.194;2023-11-21T12:41:28;2.93;;;2.63;;
11771;SDS011;12556;55.748;13.194;2023-11-21T12:43:56;2.87;;;2.37;;
11771;SDS011;12556;55.748;13.194;2023-11-21T12:46:25;2.50;;;2.30;;
11771;SDS011;12556;55.748;13.194;2023-11-21T12:48:55;3.90;;;2.93;;
11771;SDS011;12556;55.748;13.194;2023-11-21T12:51:23;3.37;;;2.73;;
11771;SDS011;12556;55.748;13.194;2023-11-21T12:53:50;3.23;;;2.27;;
11771;SDS011;12556;55.748;13.194;2023-11-21T12:56:17;4.57;;;2.30;;
11771;SDS011;12556;55.748;13.194;2023-11-21T12:58:48;2.33;;;2.13;;
11771;SDS011;12556;55.748;13.194;2023-11-21T13:01:15;2.83;;;2.30;;
11771;SDS011;12556;55.748;13.194;2023-11-21T13:03:47;2.40;;;2.20;;
11771;SDS011;12556;55.748;13.194;2023-11-21T13:06:16;2.33;;;2.07;;
11771;SDS011;12556;55.748;13.194;2023-11-21T13:08:44;2.17;;;2.03;;
11771;SDS011;12556;55.748;13.194;2023-11-21T13:11:11;3.47;;;2.73;;
11771;SDS011;12556;55.748;13.194;2023-11-21T13:13:40;3.35;;;2.40;;
11771;SDS011;12556;55.748;13.194;2023-11-21T13:16:08;2.97;;;2.43;;
11771;SDS011;12556;55.748;13.194;2023-11-21T13:18:36;2.30;;;2.10;;
11771;SDS011;12556;55.748;13.194;2023-11-21T13:21:07;2.63;;;2.37;;
11771;SDS011;12556;55.748;13.194;2023-11-21T13:23:38;2.37;;;2.10;;
11771;SDS011;12556;55.748;13.194;2023-11-21T13:26:07;3.50;;;2.37;;
11771;SDS011;12556;55.748;13.194;2023-11-21T13:28:34;2.30;;;2.10;;
11771;SDS011;12556;55.748;13.194;2023-11-21T13:31:03;3.77;;;2.40;;
11771;SDS011;12556;55.748;13.194;2023-11-21T13:33:40;2.90;;;2.60;;
11771;SDS011;12556;55.748;13.194;2023-11-21T13:36:13;2.53;;;2.33;;
11771;SDS011;12556;55.748;13.194;2023-11-21T13:38:47;3.40;;;2.47;;
11771;SDS011;12556;55.748;13.194;2023-11-21T13:41:14;4.30;;;2.50;;
11771;SDS011;12556;55.748;13.194;2023-11-21T13:43:42;3.27;;;2.70;;
11771;SDS011;12556;55.748;13.194;2023-11-21T13:46:15;3.13;;;2.60;;
11771;SDS011;12556;55.748;13.194;2023-11-21T13:48:46;2.40;;;2.17;;
11771;SDS011;12556;55.748;13.194;2023-11-21T13:51:17;2.63;;;2.27;;
11771;SDS011;12556;55.748;13.194;2023-11-21T13:53:45;3.33;;;2.43;;
11771;SDS011;12556;55.748;13.194;2023-11-21T13:56:14;2.30;;;2.10;;
11771;SDS011;12556;55.748;13.194;2023-11-21T13:58:46;4.00;;;2.50;;
11771;SDS011;12556;55.748;13.194;2023-11-21T14:01:16;4.43;;;3.07;;
11771;SDS011;12556;55.748;13.194;2023-11-21T14:04:03;3.10;;;2.33;;
11771;SDS011;12556;55.748;13.194;2023-11-21T14:06:45;3.33;;;2.90;;
11771;SDS011;12556;55.748;13.194;2023-11-21T14:09:14;2.90;;;2.57;;
11771;SDS011;12556;55.748;13.194;2023-11-21T14:11:47;3.27;;;2.90;;
11771;SDS011;12556;55.748;13.194;2023-11-21T14:14:16;3.03;;;2.73;;
11771;SDS011;12556;55.748;13.194;2023-11-21T14:16:43;3.60;;;2.50;;
11771;SDS011;12556;55.748;13.194;2023-11-21T14:19:10;3.67;;;2.73;;
11771;SDS011;12556;55.748;13.194;2023-11-21T14:21:40;3.93;;;3.00;;
11771;SDS011;12556;55.748;13.194;2023-11-21T14:24:10;3.17;;;2.83;;
11771;SDS011;12556;55.748;13.194;2023-11-21T14:26:39;3.47;;;3.17;;
11771;SDS011;12556;55.748;13.194;2023-11-21T14:29:07;3.50;;;3.20;;
11771;SDS011;12556;55.748;13.194;2023-11-21T14:31:36;3.60;;;2.90;;
11771;SDS011;12556;55.748;13.194;2023-11-21T14:34:03;3.00;;;2.70;;
11771;SDS011;12556;55.748;13.194;2023-11-21T14:36:32;3.47;;;2.73;;
11771;SDS011;12556;55.748;13.194;2023-11-21T14:38:58;3.97;;;3.17;;
11771;SDS011;12556;55.748;13.194;2023-11-21T14:41:27;3.27;;;2.80;;
11771;SDS011;12556;55.748;13.194;2023-11-21T14:43:54;3.03;;;2.70;;